sensor_id;sensor_type;location;lat;lon;timestamp;temperature;humidity
796;DHT22;381;48.770;9.188;2023-07-30T00:02:11;19.60;99.90
796;DHT22;381;48.770;9.188;2023-07-30T00:07:14;19.60;99.90
796;DHT22;381;48.770;9.188;2023-07-30T00:12:17;19.50;99.90
796;DHT22;381;48.770;9.188;2023-07-30T00:17:19;19.40;99.90
796;DHT22;381;48.770;9.188;2023-07-30T00:22:21;19.30;99.90
796;DHT22;381;48.770;9.188;2023-07-30T00:27:25;19.10;99.90
796;DHT22;381;48.770;9.188;2023-07-30T00:32:27;19.00;99.90
796;DHT22;381;48.770;9.188;2023-07-30T00:37:29;18.90;99.90
796;DHT22;381;48.770;9.188;2023-07-30T00:42:33;19.00;99.90
796;DHT22;381;48.770;9.188;2023-07-30T00:47:35;19.00;99.90
796;DHT22;381;48.770;9.188;2023-07-30T00:52:38;19.00;99.90
796;DHT22;381;48.770;9.188;2023-07-30T00:57:42;19.10;99.90
796;DHT22;381;48.770;9.188;2023-07-30T01:02:45;19.10;99.90
796;DHT22;381;48.770;9.188;2023-07-30T01:07:47;19.10;99.90
796;DHT22;381;48.770;9.188;2023-07-30T01:12:50;19.10;99.90
796;DHT22;381;48.770;9.188;2023-07-30T01:17:53;19.20;99.90
796;DHT22;381;48.770;9.188;2023-07-30T01:22:57;19.30;99.90
796;DHT22;381;48.770;9.188;2023-07-30T01:28:00;19.40;99.90
796;DHT22;381;48.770;9.188;2023-07-30T01:33:04;19.50;99.90
796;DHT22;381;48.770;9.188;2023-07-30T01:38:08;19.50;99.90
796;DHT22;381;48.770;9.188;2023-07-30T01:43:12;19.60;99.90
796;DHT22;381;48.770;9.188;2023-07-30T01:48:14;19.60;99.90
796;DHT22;381;48.770;9.188;2023-07-30T01:53:17;19.60;99.90
796;DHT22;381;48.770;9.188;2023-07-30T01:58:20;19.60;99.90
796;DHT22;381;48.770;9.188;2023-07-30T02:03:22;19.60;99.90
796;DHT22;381;48.770;9.188;2023-07-30T02:08:25;19.60;99.90
796;DHT22;381;48.770;9.188;2023-07-30T02:13:27;19.70;99.90
796;DHT22;381;48.770;9.188;2023-07-30T02:18:30;19.70;99.90
796;DHT22;381;48.770;9.188;2023-07-30T02:23:33;19.70;99.90
796;DHT22;381;48.770;9.188;2023-07-30T02:28:35;19.70;99.90
796;DHT22;381;48.770;9.188;2023-07-30T02:33:37;19.70;99.90
796;DHT22;381;48.770;9.188;2023-07-30T02:38:41;19.70;99.90
796;DHT22;381;48.770;9.188;2023-07-30T02:43:43;19.70;99.90
796;DHT22;381;48.770;9.188;2023-07-30T02:48:45;19.70;99.90
796;DHT22;381;48.770;9.188;2023-07-30T02:53:51;19.70;99.90
796;DHT22;381;48.770;9.188;2023-07-30T02:58:54;19.70;99.90
796;DHT22;381;48.770;9.188;2023-07-30T03:03:56;19.70;99.90
796;DHT22;381;48.770;9.188;2023-07-30T03:08:59;19.60;99.90
796;DHT22;381;48.770;9.188;2023-07-30T03:14:01;19.60;99.90
796;DHT22;381;48.770;9.188;2023-07-30T03:19:04;19.60;99.90
796;DHT22;381;48.770;9.188;2023-07-30T03:24:07;19.50;99.90
796;DHT22;381;48.770;9.188;2023-07-30T03:29:09;19.50;99.90
796;DHT22;381;48.770;9.188;2023-07-30T03:34:11;19.60;99.90
796;DHT22;381;48.770;9.188;2023-07-30T03:39:15;19.60;99.90
796;DHT22;381;48.770;9.188;2023-07-30T03:44:18;19.60;99.90
796;DHT22;381;48.770;9.188;2023-07-30T03:49:20;19.60;99.90
796;DHT22;381;48.770;9.188;2023-07-30T03:54:23;19.60;99.90
796;DHT22;381;48.770;9.188;2023-07-30T03:59:28;19.60;99.90
796;DHT22;381;48.770;9.188;2023-07-30T04:04:30;19.60;99.90
796;DHT22;381;48.770;9.188;2023-07-30T04:09:35;19.60;99.90
796;DHT22;381;48.770;9.188;2023-07-30T04:14:38;19.60;99.90
796;DHT22;381;48.770;9.188;2023-07-30T04:19:40;19.60;99.90
796;DHT22;381;48.770;9.188;2023-07-30T04:24:43;19.60;99.90
796;DHT22;381;48.770;9.188;2023-07-30T04:29:45;19.50;99.90
796;DHT22;381;48.770;9.188;2023-07-30T04:34:47;19.50;99.90
796;DHT22;381;48.770;9.188;2023-07-30T04:39:51;19.40;99.90
796;DHT22;381;48.770;9.188;2023-07-30T04:44:53;19.40;99.90
796;DHT22;381;48.770;9.188;2023-07-30T04:49:56;19.40;99.90
796;DHT22;381;48.770;9.188;2023-07-30T04:54:59;19.40;99.90
796;DHT22;381;48.770;9.188;2023-07-30T05:00:01;19.40;99.90
796;DHT22;381;48.770;9.188;2023-07-30T05:05:04;19.50;99.90
796;DHT22;381;48.770;9.188;2023-07-30T05:10:08;19.60;99.90
796;DHT22;381;48.770;9.188;2023-07-30T05:15:11;19.70;99.90
796;DHT22;381;48.770;9.188;2023-07-30T05:20:13;19.80;99.90
796;DHT22;381;48.770;9.188;2023-07-30T05:25:17;19.80;99.90
796;DHT22;381;48.770;9.188;2023-07-30T05:30:19;19.90;99.90
796;DHT22;381;48.770;9.188;2023-07-30T05:35:21;19.90;99.90
796;DHT22;381;48.770;9.188;2023-07-30T05:40:25;19.90;99.90
796;DHT22;381;48.770;9.188;2023-07-30T05:45:27;19.90;99.90
796;DHT22;381;48.770;9.188;2023-07-30T05:50:29;20.00;99.90
796;DHT22;381;48.770;9.188;2023-07-30T05:55:32;20.10;99.90
796;DHT22;381;48.770;9.188;2023-07-30T06:00:34;20.10;99.90
796;DHT22;381;48.770;9.188;2023-07-30T06:05:39;20.10;99.90
796;DHT22;381;48.770;9.188;2023-07-30T06:10:43;20.10;99.90
796;DHT22;381;48.770;9.188;2023-07-30T06:15:47;20.20;99.90
796;DHT22;381;48.770;9.188;2023-07-30T06:20:49;20.30;99.90
796;DHT22;381;48.770;9.188;2023-07-30T06:25:52;20.30;99.90
796;DHT22;381;48.770;9.188;2023-07-30T06:30:55;20.40;99.90
796;DHT22;381;48.770;9.188;2023-07-30T06:35:57;20.30;99.90
796;DHT22;381;48.770;9.188;2023-07-30T06:41:00;20.40;99.90
796;DHT22;381;48.770;9.188;2023-07-30T06:46:02;20.30;99.90
796;DHT22;381;48.770;9.188;2023-07-30T06:51:06;20.40;99.90
796;DHT22;381;48.770;9.188;2023-07-30T06:56:09;20.60;99.90
796;DHT22;381;48.770;9.188;2023-07-30T07:01:11;20.70;99.90
796;DHT22;381;48.770;9.188;2023-07-30T07:06:14;20.70;99.90
796;DHT22;381;48.770;9.188;2023-07-30T07:11:17;20.70;99.90
796;DHT22;381;48.770;9.188;2023-07-30T07:16:19;20.70;99.90
796;DHT22;381;48.770;9.188;2023-07-30T07:21:22;20.70;99.90
796;DHT22;381;48.770;9.188;2023-07-30T07:26:25;20.70;99.90
796;DHT22;381;48.770;9.188;2023-07-30T07:31:27;20.70;99.90
796;DHT22;381;48.770;9.188;2023-07-30T07:36:29;20.80;99.90
796;DHT22;381;48.770;9.188;2023-07-30T07:41:33;20.80;99.90
796;DHT22;381;48.770;9.188;2023-07-30T07:46:35;20.80;99.90
796;DHT22;381;48.770;9.188;2023-07-30T07:51:37;20.70;99.90
796;DHT22;381;48.770;9.188;2023-07-30T07:56:41;20.60;99.90
796;DHT22;381;48.770;9.188;2023-07-30T08:01:43;20.60;99.90
796;DHT22;381;48.770;9.188;2023-07-30T08:06:45;20.70;99.90
796;DHT22;381;48.770;9.188;2023-07-30T08:11:48;20.90;99.90
796;DHT22;381;48.770;9.188;2023-07-30T08:16:50;21.20;99.90
796;DHT22;381;48.770;9.188;2023-07-30T08:21:52;21.50;99.90
796;DHT22;381;48.770;9.188;2023-07-30T08:26:58;21.80;99.90
796;DHT22;381;48.770;9.188;2023-07-30T08:32:01;22.20;99.90
796;DHT22;381;48.770;9.188;2023-07-30T08:37:03;22.60;99.90
796;DHT22;381;48.770;9.188;2023-07-30T08:42:07;22.90;99.90
796;DHT22;381;48.770;9.188;2023-07-30T08:47:09;23.10;99.90
796;DHT22;381;48.770;9.188;2023-07-30T08:52:12;23.40;99.90
796;DHT22;381;48.770;9.188;2023-07-30T08:57:16;23.60;99.90
796;DHT22;381;48.770;9.188;2023-07-30T09:02:26;23.70;99.90
796;DHT22;381;48.770;9.188;2023-07-30T09:07:31;23.80;99.90
796;DHT22;381;48.770;9.188;2023-07-30T09:12:36;24.10;99.90
796;DHT22;381;48.770;9.188;2023-07-30T09:17:38;24.20;99.90
796;DHT22;381;48.770;9.188;2023-07-30T09:22:40;24.50;99.90
796;DHT22;381;48.770;9.188;2023-07-30T09:27:47;24.80;99.90
796;DHT22;381;48.770;9.188;2023-07-30T09:32:51;24.70;99.90
796;DHT22;381;48.770;9.188;2023-07-30T09:37:58;24.70;99.90
796;DHT22;381;48.770;9.188;2023-07-30T09:43:03;24.50;99.90
796;DHT22;381;48.770;9.188;2023-07-30T09:48:06;24.20;99.90
796;DHT22;381;48.770;9.188;2023-07-30T09:53:09;24.00;99.90
796;DHT22;381;48.770;9.188;2023-07-30T09:58:13;23.70;99.90
796;DHT22;381;48.770;9.188;2023-07-30T10:03:15;23.50;99.90
796;DHT22;381;48.770;9.188;2023-07-30T10:08:23;23.60;99.90
796;DHT22;381;48.770;9.188;2023-07-30T10:13:27;23.70;99.90
796;DHT22;381;48.770;9.188;2023-07-30T10:18:33;23.80;99.90
796;DHT22;381;48.770;9.188;2023-07-30T10:23:46;23.90;99.90
796;DHT22;381;48.770;9.188;2023-07-30T10:34:11;23.80;99.90
796;DHT22;381;48.770;9.188;2023-07-30T10:39:16;23.70;99.90
796;DHT22;381;48.770;9.188;2023-07-30T10:44:22;23.80;99.90
796;DHT22;381;48.770;9.188;2023-07-30T10:49:24;23.90;99.90
796;DHT22;381;48.770;9.188;2023-07-30T10:54:33;23.90;99.90
796;DHT22;381;48.770;9.188;2023-07-30T10:59:37;23.80;99.90
796;DHT22;381;48.770;9.188;2023-07-30T11:04:39;23.50;99.90
796;DHT22;381;48.770;9.188;2023-07-30T11:09:42;23.30;99.90
796;DHT22;381;48.770;9.188;2023-07-30T11:14:46;23.30;99.90
796;DHT22;381;48.770;9.188;2023-07-30T11:19:49;23.40;99.90
796;DHT22;381;48.770;9.188;2023-07-30T11:24:52;23.50;99.90
796;DHT22;381;48.770;9.188;2023-07-30T11:29:56;23.50;99.90
796;DHT22;381;48.770;9.188;2023-07-30T11:34:58;23.60;99.90
796;DHT22;381;48.770;9.188;2023-07-30T11:40:01;23.60;99.90
796;DHT22;381;48.770;9.188;2023-07-30T11:45:21;23.40;99.90
796;DHT22;381;48.770;9.188;2023-07-30T11:50:24;23.00;99.90
796;DHT22;381;48.770;9.188;2023-07-30T11:55:37;22.80;99.90
796;DHT22;381;48.770;9.188;2023-07-30T12:00:41;22.60;99.90
796;DHT22;381;48.770;9.188;2023-07-30T12:05:49;22.50;99.90
796;DHT22;381;48.770;9.188;2023-07-30T12:10:51;22.40;99.90
796;DHT22;381;48.770;9.188;2023-07-30T12:15:55;22.30;99.90
796;DHT22;381;48.770;9.188;2023-07-30T12:20:58;22.40;99.90
796;DHT22;381;48.770;9.188;2023-07-30T12:26:00;22.40;99.90
796;DHT22;381;48.770;9.188;2023-07-30T12:31:06;22.50;99.90
796;DHT22;381;48.770;9.188;2023-07-30T12:36:08;22.40;99.90
796;DHT22;381;48.770;9.188;2023-07-30T12:41:10;22.50;99.90
796;DHT22;381;48.770;9.188;2023-07-30T12:46:13;22.60;99.90
796;DHT22;381;48.770;9.188;2023-07-30T12:51:15;22.80;99.90
796;DHT22;381;48.770;9.188;2023-07-30T12:56:17;23.00;99.90
796;DHT22;381;48.770;9.188;2023-07-30T13:01:21;23.20;99.90
796;DHT22;381;48.770;9.188;2023-07-30T13:06:24;23.10;99.90
796;DHT22;381;48.770;9.188;2023-07-30T13:11:26;23.00;99.90
796;DHT22;381;48.770;9.188;2023-07-30T13:16:29;23.00;99.90
796;DHT22;381;48.770;9.188;2023-07-30T13:21:32;22.90;99.90
796;DHT22;381;48.770;9.188;2023-07-30T13:26:35;22.80;99.90
796;DHT22;381;48.770;9.188;2023-07-30T13:31:40;22.70;99.90
796;DHT22;381;48.770;9.188;2023-07-30T13:36:43;22.70;99.90
796;DHT22;381;48.770;9.188;2023-07-30T13:41:51;22.60;99.90
796;DHT22;381;48.770;9.188;2023-07-30T13:46:58;22.60;99.90
796;DHT22;381;48.770;9.188;2023-07-30T13:52:04;22.70;99.90
796;DHT22;381;48.770;9.188;2023-07-30T13:57:09;22.80;99.90
796;DHT22;381;48.770;9.188;2023-07-30T14:02:25;22.90;99.90
796;DHT22;381;48.770;9.188;2023-07-30T14:07:33;23.10;99.90
796;DHT22;381;48.770;9.188;2023-07-30T14:12:37;23.30;99.90
796;DHT22;381;48.770;9.188;2023-07-30T14:17:46;23.20;99.90
796;DHT22;381;48.770;9.188;2023-07-30T14:22:49;23.10;99.90
796;DHT22;381;48.770;9.188;2023-07-30T14:27:52;23.00;99.90
796;DHT22;381;48.770;9.188;2023-07-30T14:32:56;23.00;99.90
796;DHT22;381;48.770;9.188;2023-07-30T14:37:58;22.90;99.90
796;DHT22;381;48.770;9.188;2023-07-30T14:43:00;22.80;99.90
796;DHT22;381;48.770;9.188;2023-07-30T14:48:03;22.80;99.90
796;DHT22;381;48.770;9.188;2023-07-30T14:53:06;22.80;99.90
796;DHT22;381;48.770;9.188;2023-07-30T14:58:08;22.90;99.90
796;DHT22;381;48.770;9.188;2023-07-30T15:03:12;22.90;99.90
796;DHT22;381;48.770;9.188;2023-07-30T15:08:14;22.90;99.90
796;DHT22;381;48.770;9.188;2023-07-30T15:13:16;23.00;99.90
796;DHT22;381;48.770;9.188;2023-07-30T15:18:20;23.00;99.90
796;DHT22;381;48.770;9.188;2023-07-30T15:23:22;22.90;99.90
796;DHT22;381;48.770;9.188;2023-07-30T15:28:24;22.90;99.90
796;DHT22;381;48.770;9.188;2023-07-30T15:33:27;22.80;99.90
796;DHT22;381;48.770;9.188;2023-07-30T15:38:30;22.70;99.00
796;DHT22;381;48.770;9.188;2023-07-30T15:43:32;22.70;98.50
796;DHT22;381;48.770;9.188;2023-07-30T15:48:35;22.60;97.70
796;DHT22;381;48.770;9.188;2023-07-30T15:53:37;22.40;97.60
796;DHT22;381;48.770;9.188;2023-07-30T15:58:40;22.40;97.00
796;DHT22;381;48.770;9.188;2023-07-30T16:03:43;22.30;99.50
796;DHT22;381;48.770;9.188;2023-07-30T16:08:45;22.20;98.00
796;DHT22;381;48.770;9.188;2023-07-30T16:13:47;22.10;98.40
796;DHT22;381;48.770;9.188;2023-07-30T16:18:51;22.10;97.30
796;DHT22;381;48.770;9.188;2023-07-30T16:23:53;22.00;98.00
796;DHT22;381;48.770;9.188;2023-07-30T16:28:55;22.00;98.90
796;DHT22;381;48.770;9.188;2023-07-30T16:33:58;21.90;98.00
796;DHT22;381;48.770;9.188;2023-07-30T16:39:01;22.00;97.20
796;DHT22;381;48.770;9.188;2023-07-30T16:44:05;21.90;97.60
796;DHT22;381;48.770;9.188;2023-07-30T16:49:08;21.80;96.90
796;DHT22;381;48.770;9.188;2023-07-30T16:54:10;21.80;95.90
796;DHT22;381;48.770;9.188;2023-07-30T16:59:14;21.80;97.60
796;DHT22;381;48.770;9.188;2023-07-30T17:04:18;21.80;96.30
796;DHT22;381;48.770;9.188;2023-07-30T17:09:20;21.70;95.40
796;DHT22;381;48.770;9.188;2023-07-30T17:14:24;21.70;94.70
796;DHT22;381;48.770;9.188;2023-07-30T17:19:27;21.60;99.20
796;DHT22;381;48.770;9.188;2023-07-30T17:24:31;21.70;97.10
796;DHT22;381;48.770;9.188;2023-07-30T17:29:34;21.70;94.50
796;DHT22;381;48.770;9.188;2023-07-30T17:34:37;21.80;96.10
796;DHT22;381;48.770;9.188;2023-07-30T17:39:40;21.80;95.70
796;DHT22;381;48.770;9.188;2023-07-30T17:44:42;21.80;94.10
796;DHT22;381;48.770;9.188;2023-07-30T17:49:47;21.70;97.70
796;DHT22;381;48.770;9.188;2023-07-30T17:54:49;21.60;96.20
796;DHT22;381;48.770;9.188;2023-07-30T17:59:51;21.50;95.00
796;DHT22;381;48.770;9.188;2023-07-30T18:04:55;21.50;95.10
796;DHT22;381;48.770;9.188;2023-07-30T18:09:57;21.40;95.90
796;DHT22;381;48.770;9.188;2023-07-30T18:14:59;21.30;96.70
796;DHT22;381;48.770;9.188;2023-07-30T18:20:04;21.20;99.90
796;DHT22;381;48.770;9.188;2023-07-30T18:25:06;21.20;97.70
796;DHT22;381;48.770;9.188;2023-07-30T18:30:09;21.10;99.90
796;DHT22;381;48.770;9.188;2023-07-30T18:35:13;21.00;99.80
796;DHT22;381;48.770;9.188;2023-07-30T18:40:15;21.00;99.70
796;DHT22;381;48.770;9.188;2023-07-30T18:45:19;20.90;99.90
796;DHT22;381;48.770;9.188;2023-07-30T18:50:22;20.90;99.90
796;DHT22;381;48.770;9.188;2023-07-30T18:55:24;20.90;99.90
796;DHT22;381;48.770;9.188;2023-07-30T19:00:26;20.90;99.90
796;DHT22;381;48.770;9.188;2023-07-30T19:05:30;20.80;99.90
796;DHT22;381;48.770;9.188;2023-07-30T19:10:32;20.70;99.90
796;DHT22;381;48.770;9.188;2023-07-30T19:15:35;20.70;99.90
796;DHT22;381;48.770;9.188;2023-07-30T19:20:39;20.70;99.90
796;DHT22;381;48.770;9.188;2023-07-30T19:25:46;20.70;99.90
796;DHT22;381;48.770;9.188;2023-07-30T19:30:48;20.60;99.90
796;DHT22;381;48.770;9.188;2023-07-30T19:35:52;20.50;99.90
796;DHT22;381;48.770;9.188;2023-07-30T19:40:54;20.50;99.90
796;DHT22;381;48.770;9.188;2023-07-30T19:45:56;20.40;99.90
796;DHT22;381;48.770;9.188;2023-07-30T19:50:59;20.30;99.90
796;DHT22;381;48.770;9.188;2023-07-30T19:56:03;20.20;99.90
796;DHT22;381;48.770;9.188;2023-07-30T20:01:08;20.10;99.90
796;DHT22;381;48.770;9.188;2023-07-30T20:06:15;20.10;99.90
796;DHT22;381;48.770;9.188;2023-07-30T20:11:21;20.00;99.90
796;DHT22;381;48.770;9.188;2023-07-30T20:16:25;19.90;99.90
796;DHT22;381;48.770;9.188;2023-07-30T20:21:28;19.90;99.90
796;DHT22;381;48.770;9.188;2023-07-30T20:26:30;19.80;99.90
796;DHT22;381;48.770;9.188;2023-07-30T20:31:33;19.70;99.90
796;DHT22;381;48.770;9.188;2023-07-30T20:36:38;19.60;99.90
796;DHT22;381;48.770;9.188;2023-07-30T20:41:41;19.50;99.90
796;DHT22;381;48.770;9.188;2023-07-30T20:46:43;19.40;99.90
796;DHT22;381;48.770;9.188;2023-07-30T20:51:46;19.40;99.90
796;DHT22;381;48.770;9.188;2023-07-30T20:56:48;19.40;99.90
796;DHT22;381;48.770;9.188;2023-07-30T21:01:50;19.30;99.90
796;DHT22;381;48.770;9.188;2023-07-30T21:06:54;19.30;99.90
796;DHT22;381;48.770;9.188;2023-07-30T21:11:56;19.20;99.90
796;DHT22;381;48.770;9.188;2023-07-30T21:16:58;19.20;99.90
796;DHT22;381;48.770;9.188;2023-07-30T21:22:01;19.20;99.90
796;DHT22;381;48.770;9.188;2023-07-30T21:27:04;19.10;99.90
796;DHT22;381;48.770;9.188;2023-07-30T21:32:06;19.10;99.90
796;DHT22;381;48.770;9.188;2023-07-30T21:37:10;19.10;99.90
796;DHT22;381;48.770;9.188;2023-07-30T21:42:12;19.10;99.90
796;DHT22;381;48.770;9.188;2023-07-30T21:47:14;19.00;99.90
796;DHT22;381;48.770;9.188;2023-07-30T21:52:25;19.00;99.90
796;DHT22;381;48.770;9.188;2023-07-30T21:57:28;18.90;99.90
796;DHT22;381;48.770;9.188;2023-07-30T22:02:30;18.80;99.90
796;DHT22;381;48.770;9.188;2023-07-30T22:07:33;18.80;99.90
796;DHT22;381;48.770;9.188;2023-07-30T22:12:35;18.80;99.90
796;DHT22;381;48.770;9.188;2023-07-30T23:02:35;18.50;99.90
